Radovljica, Slovenia

08:39 AM CEST on avgust 14, 2018 (GMT +0200)
Radovljica-Predtrg | | Change Station

Viš 1610 ft 46.34 °N, 14.18 °E | Updated 1 minute ago

Dez
Dez
67.3 °F
Feels Like 67.3 °F
N
6.9
Veter Spremenljivo Veter od ZJZ
Gusts 4.6 mph

Danes
High -- | Low -- °F
--% Chance of Precip.
Yesterday
High -- | Low -- °F
Precip. -- v
Zračni tlak 29.89 v
Vidljivost 6.2 milje
Oblaki Few 300 ft
Pretezno oblacno 4000 ft
Oblacno 10000 ft
Rosišče 60 °F
Vlažnost 79%
Padavine 0.16 v
Snow Depth Not available.
6:00 AM 8:14 PM
Naraščajoči krajec, 12% visible
METAR LJLJ 140630Z 27007KT 9999 -RA FEW003 BKN040 OVC100 18/18 Q1012 NOSIG
Zračni tlak 29.89 v
Vidljivost 6.2 milje
Oblaki Few 300 ft
Pretezno oblacno 4000 ft
Oblacno 10000 ft
Rosišče 60 °F
Vlažnost 79%
Padavine 0.16 v
Snow Depth Not available.
6:00 AM 8:14 PM
Naraščajoči krajec, 12% visible
METAR LJLJ 140630Z 27007KT 9999 -RA FEW003 BKN040 OVC100 18/18 Q1012 NOSIG

Get Severe Weather Alerts

Thanks for signing up!

Be on the lookout for a verification email in your inbox.

You'll start receiving the daily forecast at 6 AM.

×

10-Day Weather Forecast

×

Almanac

Astronomija

Aug. 14, 2018 Rise Set
Actual Time
Civil Twilight
Nautical Twilight
Astronomical Twilight
Moon
Length Of Visible Light
Dolžina dneva
Tomorrow will be .
, % of the Moon is Illuminated

Današnji ekstremi

Country Highs Country Lows

Community

WunderPhotos

Category 6

Welcome to Category 6. This is the collective home for Weather Underground's featured writeups by Dr. Jeff Masters (right), Bob Henson (left), Chris Burt, and other regular contributors.

Nearby

Air Quality

  Air Quality AQ Index Pollutant
Not available.

Snow Depth

Station Depth Višina

Earthquake Activity

City Distance Mag. Time & Date
Minimum magnitude displayed is 2.5.

Coastal Water Temperatures

Mesto Temperatura

Stations

Nearby Weather Stations

Station Location Temp Občutek zaradi vetra Rosišče Vlažnost Veter Precip. Viš Obnovljeno Type